sensor_id;sensor_type;location;lat;lon;timestamp;P1;durP1;ratioP1;P2;durP2;ratioP2
78288;SDS011;67539;48.752;12.922;2023-06-22T00:01:22;9.40;;;6.10;;
78288;SDS011;67539;48.752;12.922;2023-06-22T00:03:52;9.50;;;6.17;;
78288;SDS011;67539;48.752;12.922;2023-06-22T00:06:20;8.67;;;6.23;;
78288;SDS011;67539;48.752;12.922;2023-06-22T00:08:48;9.70;;;5.77;;
78288;SDS011;67539;48.752;12.922;2023-06-22T00:11:16;9.80;;;6.07;;
78288;SDS011;67539;48.752;12.922;2023-06-22T00:13:46;8.03;;;6.23;;
78288;SDS011;67539;48.752;12.922;2023-06-22T00:16:15;12.90;;;5.83;;
78288;SDS011;67539;48.752;12.922;2023-06-22T00:18:43;7.93;;;6.03;;
78288;SDS011;67539;48.752;12.922;2023-06-22T00:21:15;9.90;;;5.87;;
78288;SDS011;67539;48.752;12.922;2023-06-22T00:23:43;8.63;;;6.20;;
78288;SDS011;67539;48.752;12.922;2023-06-22T00:26:11;11.23;;;5.50;;
78288;SDS011;67539;48.752;12.922;2023-06-22T00:28:39;10.00;;;5.97;;
78288;SDS011;67539;48.752;12.922;2023-06-22T00:31:07;10.10;;;7.10;;
78288;SDS011;67539;48.752;12.922;2023-06-22T00:33:35;9.53;;;6.80;;
78288;SDS011;67539;48.752;12.922;2023-06-22T00:36:04;11.03;;;6.63;;
78288;SDS011;67539;48.752;12.922;2023-06-22T00:38:35;15.13;;;6.63;;
78288;SDS011;67539;48.752;12.922;2023-06-22T00:41:07;7.60;;;6.17;;
78288;SDS011;67539;48.752;12.922;2023-06-22T00:43:35;9.10;;;6.47;;
78288;SDS011;67539;48.752;12.922;2023-06-22T00:46:03;7.97;;;6.47;;
78288;SDS011;67539;48.752;12.922;2023-06-22T00:48:31;7.93;;;6.93;;
78288;SDS011;67539;48.752;12.922;2023-06-22T00:50:59;12.97;;;7.63;;
78288;SDS011;67539;48.752;12.922;2023-06-22T00:53:28;9.63;;;6.70;;
78288;SDS011;67539;48.752;12.922;2023-06-22T00:56:01;8.50;;;6.43;;
78288;SDS011;67539;48.752;12.922;2023-06-22T00:58:29;8.43;;;7.00;;
78288;SDS011;67539;48.752;12.922;2023-06-22T01:00:58;14.97;;;7.10;;
78288;SDS011;67539;48.752;12.922;2023-06-22T01:03:26;8.90;;;6.83;;
78288;SDS011;67539;48.752;12.922;2023-06-22T01:05:55;10.80;;;7.10;;
78288;SDS011;67539;48.752;12.922;2023-06-22T01:08:37;12.13;;;6.90;;
78288;SDS011;67539;48.752;12.922;2023-06-22T01:11:16;17.00;;;7.20;;
78288;SDS011;67539;48.752;12.922;2023-06-22T01:13:49;11.37;;;7.53;;
78288;SDS011;67539;48.752;12.922;2023-06-22T01:16:23;11.80;;;6.80;;
78288;SDS011;67539;48.752;12.922;2023-06-22T01:18:54;8.40;;;7.00;;
78288;SDS011;67539;48.752;12.922;2023-06-22T01:21:28;9.20;;;6.70;;
78288;SDS011;67539;48.752;12.922;2023-06-22T01:24:02;11.63;;;7.10;;
78288;SDS011;67539;48.752;12.922;2023-06-22T01:26:46;8.93;;;7.00;;
78288;SDS011;67539;48.752;12.922;2023-06-22T01:29:25;11.33;;;7.13;;
78288;SDS011;67539;48.752;12.922;2023-06-22T01:31:54;9.10;;;6.80;;
78288;SDS011;67539;48.752;12.922;2023-06-22T01:34:27;9.30;;;6.47;;
78288;SDS011;67539;48.752;12.922;2023-06-22T01:36:58;8.60;;;6.70;;
78288;SDS011;67539;48.752;12.922;2023-06-22T01:39:28;7.30;;;6.53;;
78288;SDS011;67539;48.752;12.922;2023-06-22T01:41:57;7.50;;;6.37;;
78288;SDS011;67539;48.752;12.922;2023-06-22T01:44:28;7.77;;;5.90;;
78288;SDS011;67539;48.752;12.922;2023-06-22T01:46:56;12.57;;;6.90;;
78288;SDS011;67539;48.752;12.922;2023-06-22T01:49:25;10.47;;;6.73;;
78288;SDS011;67539;48.752;12.922;2023-06-22T01:51:53;8.43;;;6.23;;
78288;SDS011;67539;48.752;12.922;2023-06-22T01:54:22;7.50;;;6.20;;
78288;SDS011;67539;48.752;12.922;2023-06-22T01:56:50;8.03;;;5.70;;
78288;SDS011;67539;48.752;12.922;2023-06-22T01:59:20;10.77;;;6.10;;
78288;SDS011;67539;48.752;12.922;2023-06-22T02:01:57;13.10;;;6.77;;
78288;SDS011;67539;48.752;12.922;2023-06-22T02:04:31;7.67;;;6.23;;
78288;SDS011;67539;48.752;12.922;2023-06-22T02:07:05;8.43;;;6.20;;
78288;SDS011;67539;48.752;12.922;2023-06-22T02:09:36;7.23;;;5.30;;
78288;SDS011;67539;48.752;12.922;2023-06-22T02:12:06;13.40;;;6.87;;
78288;SDS011;67539;48.752;12.922;2023-06-22T02:14:35;9.67;;;6.10;;
78288;SDS011;67539;48.752;12.922;2023-06-22T02:17:07;8.40;;;5.73;;
78288;SDS011;67539;48.752;12.922;2023-06-22T02:19:36;13.00;;;7.33;;
78288;SDS011;67539;48.752;12.922;2023-06-22T02:22:05;9.20;;;6.40;;
78288;SDS011;67539;48.752;12.922;2023-06-22T02:24:33;12.03;;;6.43;;
78288;SDS011;67539;48.752;12.922;2023-06-22T02:27:01;8.10;;;6.47;;
78288;SDS011;67539;48.752;12.922;2023-06-22T02:29:31;8.20;;;6.23;;
78288;SDS011;67539;48.752;12.922;2023-06-22T02:32:01;9.50;;;6.23;;
78288;SDS011;67539;48.752;12.922;2023-06-22T02:34:31;7.10;;;6.20;;
78288;SDS011;67539;48.752;12.922;2023-06-22T02:37:00;6.50;;;5.90;;
78288;SDS011;67539;48.752;12.922;2023-06-22T02:39:29;7.47;;;6.77;;
78288;SDS011;67539;48.752;12.922;2023-06-22T02:41:57;10.40;;;6.20;;
78288;SDS011;67539;48.752;12.922;2023-06-22T02:44:25;7.27;;;6.20;;
78288;SDS011;67539;48.752;12.922;2023-06-22T02:46:53;9.63;;;6.70;;
78288;SDS011;67539;48.752;12.922;2023-06-22T02:49:21;7.53;;;6.57;;
78288;SDS011;67539;48.752;12.922;2023-06-22T02:51:52;8.30;;;6.27;;
78288;SDS011;67539;48.752;12.922;2023-06-22T02:54:21;10.00;;;6.87;;
78288;SDS011;67539;48.752;12.922;2023-06-22T02:56:52;8.30;;;7.03;;
78288;SDS011;67539;48.752;12.922;2023-06-22T02:59:21;8.00;;;7.07;;
78288;SDS011;67539;48.752;12.922;2023-06-22T03:01:53;7.33;;;6.53;;
78288;SDS011;67539;48.752;12.922;2023-06-22T03:04:26;7.40;;;6.40;;
78288;SDS011;67539;48.752;12.922;2023-06-22T03:06:55;8.57;;;6.80;;
78288;SDS011;67539;48.752;12.922;2023-06-22T03:09:28;7.70;;;5.33;;
78288;SDS011;67539;48.752;12.922;2023-06-22T03:11:57;8.20;;;6.60;;
78288;SDS011;67539;48.752;12.922;2023-06-22T03:14:32;7.63;;;5.00;;
78288;SDS011;67539;48.752;12.922;2023-06-22T03:17:01;6.73;;;6.03;;
78288;SDS011;67539;48.752;12.922;2023-06-22T03:19:31;10.93;;;5.87;;
78288;SDS011;67539;48.752;12.922;2023-06-22T03:22:00;7.30;;;5.47;;
78288;SDS011;67539;48.752;12.922;2023-06-22T03:24:28;7.17;;;5.33;;
78288;SDS011;67539;48.752;12.922;2023-06-22T03:26:56;6.73;;;5.63;;
78288;SDS011;67539;48.752;12.922;2023-06-22T03:29:24;9.93;;;5.63;;
78288;SDS011;67539;48.752;12.922;2023-06-22T03:31:56;9.60;;;4.50;;
78288;SDS011;67539;48.752;12.922;2023-06-22T03:34:25;10.80;;;6.07;;
78288;SDS011;67539;48.752;12.922;2023-06-22T03:36:53;6.70;;;5.60;;
78288;SDS011;67539;48.752;12.922;2023-06-22T03:39:23;8.63;;;6.03;;
78288;SDS011;67539;48.752;12.922;2023-06-22T03:41:51;7.10;;;5.83;;
78288;SDS011;67539;48.752;12.922;2023-06-22T03:44:20;6.40;;;5.80;;
78288;SDS011;67539;48.752;12.922;2023-06-22T03:46:48;8.50;;;6.27;;
78288;SDS011;67539;48.752;12.922;2023-06-22T03:49:18;7.10;;;5.93;;
78288;SDS011;67539;48.752;12.922;2023-06-22T03:51:46;7.20;;;5.57;;
78288;SDS011;67539;48.752;12.922;2023-06-22T03:54:14;11.63;;;6.63;;
78288;SDS011;67539;48.752;12.922;2023-06-22T03:56:43;7.57;;;6.60;;
78288;SDS011;67539;48.752;12.922;2023-06-22T03:59:11;8.27;;;7.20;;
78288;SDS011;67539;48.752;12.922;2023-06-22T04:01:39;7.97;;;7.17;;
78288;SDS011;67539;48.752;12.922;2023-06-22T04:04:07;13.13;;;7.07;;
78288;SDS011;67539;48.752;12.922;2023-06-22T04:06:36;10.40;;;7.40;;
78288;SDS011;67539;48.752;12.922;2023-06-22T04:09:05;7.60;;;6.23;;
78288;SDS011;67539;48.752;12.922;2023-06-22T04:11:33;9.47;;;6.97;;
78288;SDS011;67539;48.752;12.922;2023-06-22T04:14:03;9.53;;;6.30;;
78288;SDS011;67539;48.752;12.922;2023-06-22T04:16:31;9.40;;;6.00;;
78288;SDS011;67539;48.752;12.922;2023-06-22T04:18:59;8.10;;;7.30;;
78288;SDS011;67539;48.752;12.922;2023-06-22T04:21:27;7.83;;;7.03;;
78288;SDS011;67539;48.752;12.922;2023-06-22T04:23:55;7.80;;;7.00;;
78288;SDS011;67539;48.752;12.922;2023-06-22T04:26:23;7.83;;;7.00;;
78288;SDS011;67539;48.752;12.922;2023-06-22T04:28:51;7.70;;;6.90;;
78288;SDS011;67539;48.752;12.922;2023-06-22T04:31:22;9.50;;;7.43;;
78288;SDS011;67539;48.752;12.922;2023-06-22T04:33:53;10.33;;;7.37;;
78288;SDS011;67539;48.752;12.922;2023-06-22T04:36:21;9.50;;;7.33;;
78288;SDS011;67539;48.752;12.922;2023-06-22T04:38:51;10.00;;;8.60;;
78288;SDS011;67539;48.752;12.922;2023-06-22T04:41:19;15.17;;;8.77;;
78288;SDS011;67539;48.752;12.922;2023-06-22T04:43:50;10.10;;;8.23;;
78288;SDS011;67539;48.752;12.922;2023-06-22T04:46:20;9.47;;;7.50;;
78288;SDS011;67539;48.752;12.922;2023-06-22T04:48:49;9.13;;;7.87;;
78288;SDS011;67539;48.752;12.922;2023-06-22T04:51:18;9.73;;;8.33;;
78288;SDS011;67539;48.752;12.922;2023-06-22T04:53:48;8.20;;;7.30;;
78288;SDS011;67539;48.752;12.922;2023-06-22T04:56:16;7.03;;;6.43;;
78288;SDS011;67539;48.752;12.922;2023-06-22T04:58:44;9.07;;;8.13;;
78288;SDS011;67539;48.752;12.922;2023-06-22T05:01:12;9.63;;;6.80;;
78288;SDS011;67539;48.752;12.922;2023-06-22T05:03:40;9.47;;;6.97;;
78288;SDS011;67539;48.752;12.922;2023-06-22T05:06:10;7.90;;;7.20;;
78288;SDS011;67539;48.752;12.922;2023-06-22T05:08:39;7.40;;;6.70;;
78288;SDS011;67539;48.752;12.922;2023-06-22T05:11:07;10.63;;;7.47;;
78288;SDS011;67539;48.752;12.922;2023-06-22T05:13:35;7.93;;;7.07;;
78288;SDS011;67539;48.752;12.922;2023-06-22T05:16:04;8.60;;;7.70;;
78288;SDS011;67539;48.752;12.922;2023-06-22T05:18:32;9.00;;;8.10;;
78288;SDS011;67539;48.752;12.922;2023-06-22T05:21:01;10.50;;;8.07;;
78288;SDS011;67539;48.752;12.922;2023-06-22T05:23:31;12.67;;;7.93;;
78288;SDS011;67539;48.752;12.922;2023-06-22T05:25:59;8.30;;;7.50;;
78288;SDS011;67539;48.752;12.922;2023-06-22T05:28:27;8.80;;;7.90;;
78288;SDS011;67539;48.752;12.922;2023-06-22T05:30:55;8.50;;;7.63;;
78288;SDS011;67539;48.752;12.922;2023-06-22T05:33:23;8.83;;;7.80;;
78288;SDS011;67539;48.752;12.922;2023-06-22T05:35:51;10.20;;;8.50;;
78288;SDS011;67539;48.752;12.922;2023-06-22T05:38:19;9.37;;;8.17;;
78288;SDS011;67539;48.752;12.922;2023-06-22T05:40:48;10.43;;;8.37;;
78288;SDS011;67539;48.752;12.922;2023-06-22T05:43:16;8.37;;;7.50;;
78288;SDS011;67539;48.752;12.922;2023-06-22T05:45:44;9.67;;;8.53;;
78288;SDS011;67539;48.752;12.922;2023-06-22T05:48:12;8.57;;;7.60;;
78288;SDS011;67539;48.752;12.922;2023-06-22T05:50:41;10.53;;;9.00;;
78288;SDS011;67539;48.752;12.922;2023-06-22T05:53:10;8.73;;;7.97;;
78288;SDS011;67539;48.752;12.922;2023-06-22T05:55:38;8.50;;;7.73;;
78288;SDS011;67539;48.752;12.922;2023-06-22T05:58:08;9.00;;;7.87;;
78288;SDS011;67539;48.752;12.922;2023-06-22T06:00:36;11.40;;;8.00;;
78288;SDS011;67539;48.752;12.922;2023-06-22T06:03:04;9.53;;;7.90;;
78288;SDS011;67539;48.752;12.922;2023-06-22T06:05:33;9.93;;;8.10;;
78288;SDS011;67539;48.752;12.922;2023-06-22T06:08:02;9.53;;;8.20;;
78288;SDS011;67539;48.752;12.922;2023-06-22T06:10:32;9.43;;;7.63;;
78288;SDS011;67539;48.752;12.922;2023-06-22T06:13:00;10.43;;;9.43;;
78288;SDS011;67539;48.752;12.922;2023-06-22T06:15:32;9.43;;;8.40;;
78288;SDS011;67539;48.752;12.922;2023-06-22T06:18:01;10.17;;;9.17;;
78288;SDS011;67539;48.752;12.922;2023-06-22T06:20:32;10.33;;;7.60;;
78288;SDS011;67539;48.752;12.922;2023-06-22T06:23:00;12.70;;;10.23;;
78288;SDS011;67539;48.752;12.922;2023-06-22T06:25:29;9.20;;;8.40;;
78288;SDS011;67539;48.752;12.922;2023-06-22T06:27:57;8.00;;;7.23;;
78288;SDS011;67539;48.752;12.922;2023-06-22T06:30:25;9.70;;;7.80;;
78288;SDS011;67539;48.752;12.922;2023-06-22T06:32:55;9.30;;;8.37;;
78288;SDS011;67539;48.752;12.922;2023-06-22T06:35:23;9.53;;;8.13;;
78288;SDS011;67539;48.752;12.922;2023-06-22T06:37:52;8.60;;;7.73;;
78288;SDS011;67539;48.752;12.922;2023-06-22T06:40:20;9.27;;;7.83;;
78288;SDS011;67539;48.752;12.922;2023-06-22T06:42:48;8.17;;;7.47;;
78288;SDS011;67539;48.752;12.922;2023-06-22T06:45:17;10.30;;;8.70;;
78288;SDS011;67539;48.752;12.922;2023-06-22T06:47:46;8.10;;;7.40;;
78288;SDS011;67539;48.752;12.922;2023-06-22T06:50:15;10.33;;;7.80;;
78288;SDS011;67539;48.752;12.922;2023-06-22T06:52:44;8.97;;;7.90;;
78288;SDS011;67539;48.752;12.922;2023-06-22T06:55:12;9.90;;;8.93;;
78288;SDS011;67539;48.752;12.922;2023-06-22T06:57:41;10.27;;;8.77;;
78288;SDS011;67539;48.752;12.922;2023-06-22T07:00:10;10.70;;;9.03;;
78288;SDS011;67539;48.752;12.922;2023-06-22T07:02:41;9.00;;;8.17;;
78288;SDS011;67539;48.752;12.922;2023-06-22T07:05:11;8.80;;;8.00;;
78288;SDS011;67539;48.752;12.922;2023-06-22T07:07:41;9.07;;;8.27;;
78288;SDS011;67539;48.752;12.922;2023-06-22T07:10:09;10.73;;;9.63;;
78288;SDS011;67539;48.752;12.922;2023-06-22T07:12:38;9.37;;;8.47;;
78288;SDS011;67539;48.752;12.922;2023-06-22T07:15:06;10.60;;;8.67;;
78288;SDS011;67539;48.752;12.922;2023-06-22T07:17:35;9.43;;;8.40;;
78288;SDS011;67539;48.752;12.922;2023-06-22T07:20:04;11.73;;;9.10;;
78288;SDS011;67539;48.752;12.922;2023-06-22T07:22:36;9.67;;;8.67;;
78288;SDS011;67539;48.752;12.922;2023-06-22T07:25:07;9.93;;;8.63;;
78288;SDS011;67539;48.752;12.922;2023-06-22T07:27:36;10.07;;;8.40;;
78288;SDS011;67539;48.752;12.922;2023-06-22T07:30:06;9.03;;;7.93;;
78288;SDS011;67539;48.752;12.922;2023-06-22T07:32:35;8.53;;;7.73;;
78288;SDS011;67539;48.752;12.922;2023-06-22T07:35:04;10.10;;;9.03;;
78288;SDS011;67539;48.752;12.922;2023-06-22T07:37:33;10.03;;;9.10;;
78288;SDS011;67539;48.752;12.922;2023-06-22T07:40:01;8.67;;;7.87;;
78288;SDS011;67539;48.752;12.922;2023-06-22T07:42:34;9.90;;;8.20;;
78288;SDS011;67539;48.752;12.922;2023-06-22T07:45:02;9.07;;;8.17;;
78288;SDS011;67539;48.752;12.922;2023-06-22T07:47:32;9.50;;;8.50;;
78288;SDS011;67539;48.752;12.922;2023-06-22T07:50:02;9.57;;;8.67;;
78288;SDS011;67539;48.752;12.922;2023-06-22T07:52:31;11.37;;;9.20;;
78288;SDS011;67539;48.752;12.922;2023-06-22T07:54:59;9.70;;;8.23;;
78288;SDS011;67539;48.752;12.922;2023-06-22T07:57:28;9.17;;;8.20;;
78288;SDS011;67539;48.752;12.922;2023-06-22T08:00:02;11.10;;;7.83;;
78288;SDS011;67539;48.752;12.922;2023-06-22T08:02:42;10.67;;;9.03;;
78288;SDS011;67539;48.752;12.922;2023-06-22T08:05:12;9.10;;;8.20;;
78288;SDS011;67539;48.752;12.922;2023-06-22T08:07:44;9.13;;;8.30;;
78288;SDS011;67539;48.752;12.922;2023-06-22T08:10:15;8.30;;;7.60;;
78288;SDS011;67539;48.752;12.922;2023-06-22T08:12:43;9.23;;;8.37;;
78288;SDS011;67539;48.752;12.922;2023-06-22T08:15:12;10.17;;;8.37;;
78288;SDS011;67539;48.752;12.922;2023-06-22T08:17:40;8.83;;;7.93;;
78288;SDS011;67539;48.752;12.922;2023-06-22T08:20:09;9.63;;;8.70;;
78288;SDS011;67539;48.752;12.922;2023-06-22T08:22:39;9.57;;;8.50;;
78288;SDS011;67539;48.752;12.922;2023-06-22T08:25:07;9.13;;;8.33;;
78288;SDS011;67539;48.752;12.922;2023-06-22T08:27:36;8.67;;;7.90;;
78288;SDS011;67539;48.752;12.922;2023-06-22T08:30:05;8.70;;;8.00;;
78288;SDS011;67539;48.752;12.922;2023-06-22T08:32:35;9.37;;;8.47;;
78288;SDS011;67539;48.752;12.922;2023-06-22T08:35:04;9.43;;;7.43;;
78288;SDS011;67539;48.752;12.922;2023-06-22T08:37:35;10.60;;;8.20;;
78288;SDS011;67539;48.752;12.922;2023-06-22T08:40:06;9.17;;;8.27;;
78288;SDS011;67539;48.752;12.922;2023-06-22T08:42:37;9.83;;;8.93;;
78288;SDS011;67539;48.752;12.922;2023-06-22T08:45:06;9.57;;;8.60;;
78288;SDS011;67539;48.752;12.922;2023-06-22T08:47:36;11.10;;;7.80;;
78288;SDS011;67539;48.752;12.922;2023-06-22T08:50:04;10.37;;;7.87;;
78288;SDS011;67539;48.752;12.922;2023-06-22T08:52:34;9.03;;;7.40;;
78288;SDS011;67539;48.752;12.922;2023-06-22T08:55:03;8.23;;;7.50;;
78288;SDS011;67539;48.752;12.922;2023-06-22T08:57:32;10.60;;;9.13;;
78288;SDS011;67539;48.752;12.922;2023-06-22T09:00:00;8.80;;;7.90;;
78288;SDS011;67539;48.752;12.922;2023-06-22T09:02:31;7.87;;;6.97;;
78288;SDS011;67539;48.752;12.922;2023-06-22T09:05:02;7.87;;;7.33;;
78288;SDS011;67539;48.752;12.922;2023-06-22T09:07:31;8.67;;;7.53;;
78288;SDS011;67539;48.752;12.922;2023-06-22T09:10:00;7.63;;;7.00;;
78288;SDS011;67539;48.752;12.922;2023-06-22T09:12:30;8.07;;;7.20;;
78288;SDS011;67539;48.752;12.922;2023-06-22T09:14:59;8.60;;;7.60;;
78288;SDS011;67539;48.752;12.922;2023-06-22T09:17:27;8.00;;;6.67;;
78288;SDS011;67539;48.752;12.922;2023-06-22T09:19:56;10.03;;;7.53;;
78288;SDS011;67539;48.752;12.922;2023-06-22T09:22:25;10.40;;;7.63;;
78288;SDS011;67539;48.752;12.922;2023-06-22T09:24:55;7.80;;;7.10;;
78288;SDS011;67539;48.752;12.922;2023-06-22T09:27:23;8.13;;;7.07;;
78288;SDS011;67539;48.752;12.922;2023-06-22T09:29:51;9.67;;;7.20;;
78288;SDS011;67539;48.752;12.922;2023-06-22T09:32:19;9.73;;;6.90;;
78288;SDS011;67539;48.752;12.922;2023-06-22T09:34:47;7.20;;;6.60;;
78288;SDS011;67539;48.752;12.922;2023-06-22T09:37:16;8.17;;;7.47;;
78288;SDS011;67539;48.752;12.922;2023-06-22T09:39:45;8.73;;;6.80;;
78288;SDS011;67539;48.752;12.922;2023-06-22T09:42:14;8.00;;;6.80;;
78288;SDS011;67539;48.752;12.922;2023-06-22T09:44:42;7.50;;;6.80;;
78288;SDS011;67539;48.752;12.922;2023-06-22T09:47:10;7.70;;;7.00;;
78288;SDS011;67539;48.752;12.922;2023-06-22T09:49:38;7.60;;;6.90;;
78288;SDS011;67539;48.752;12.922;2023-06-22T09:52:09;7.63;;;6.93;;
78288;SDS011;67539;48.752;12.922;2023-06-22T09:54:37;8.33;;;7.40;;
78288;SDS011;67539;48.752;12.922;2023-06-22T09:57:07;7.10;;;6.43;;
78288;SDS011;67539;48.752;12.922;2023-06-22T09:59:35;7.70;;;6.83;;
78288;SDS011;67539;48.752;12.922;2023-06-22T10:02:03;9.00;;;6.77;;
78288;SDS011;67539;48.752;12.922;2023-06-22T10:04:32;7.43;;;6.73;;
78288;SDS011;67539;48.752;12.922;2023-06-22T10:07:00;9.10;;;6.87;;
78288;SDS011;67539;48.752;12.922;2023-06-22T10:09:29;8.90;;;7.13;;
78288;SDS011;67539;48.752;12.922;2023-06-22T10:11:57;8.50;;;7.30;;
78288;SDS011;67539;48.752;12.922;2023-06-22T10:14:26;7.00;;;6.33;;
78288;SDS011;67539;48.752;12.922;2023-06-22T10:16:56;6.90;;;6.23;;
78288;SDS011;67539;48.752;12.922;2023-06-22T10:19:25;7.20;;;6.40;;
78288;SDS011;67539;48.752;12.922;2023-06-22T10:21:53;7.30;;;6.70;;
78288;SDS011;67539;48.752;12.922;2023-06-22T10:24:21;7.47;;;6.70;;
78288;SDS011;67539;48.752;12.922;2023-06-22T10:26:49;9.63;;;6.40;;
78288;SDS011;67539;48.752;12.922;2023-06-22T10:29:18;7.43;;;6.73;;
78288;SDS011;67539;48.752;12.922;2023-06-22T10:31:49;7.53;;;6.93;;
78288;SDS011;67539;48.752;12.922;2023-06-22T10:34:17;9.73;;;6.63;;
78288;SDS011;67539;48.752;12.922;2023-06-22T10:36:45;6.93;;;6.33;;
78288;SDS011;67539;48.752;12.922;2023-06-22T10:39:15;7.50;;;6.80;;
78288;SDS011;67539;48.752;12.922;2023-06-22T10:41:43;9.30;;;6.57;;
78288;SDS011;67539;48.752;12.922;2023-06-22T10:44:11;9.60;;;6.83;;
78288;SDS011;67539;48.752;12.922;2023-06-22T10:46:39;8.30;;;6.50;;
78288;SDS011;67539;48.752;12.922;2023-06-22T10:49:09;7.50;;;6.00;;
78288;SDS011;67539;48.752;12.922;2023-06-22T10:51:37;7.80;;;7.13;;
78288;SDS011;67539;48.752;12.922;2023-06-22T10:54:05;6.87;;;6.20;;
78288;SDS011;67539;48.752;12.922;2023-06-22T10:56:33;7.07;;;6.47;;
78288;SDS011;67539;48.752;12.922;2023-06-22T10:59:01;7.20;;;6.60;;
78288;SDS011;67539;48.752;12.922;2023-06-22T11:01:29;8.27;;;6.37;;
78288;SDS011;67539;48.752;12.922;2023-06-22T11:04:02;9.37;;;6.70;;
78288;SDS011;67539;48.752;12.922;2023-06-22T11:06:32;7.63;;;6.57;;
78288;SDS011;67539;48.752;12.922;2023-06-22T11:09:00;7.63;;;6.97;;
78288;SDS011;67539;48.752;12.922;2023-06-22T11:11:49;7.40;;;6.70;;
78288;SDS011;67539;48.752;12.922;2023-06-22T11:14:20;7.27;;;6.67;;
78288;SDS011;67539;48.752;12.922;2023-06-22T11:16:48;6.20;;;5.70;;
78288;SDS011;67539;48.752;12.922;2023-06-22T11:19:16;8.77;;;7.43;;
78288;SDS011;67539;48.752;12.922;2023-06-22T11:21:46;7.43;;;6.60;;
78288;SDS011;67539;48.752;12.922;2023-06-22T11:24:15;9.93;;;7.23;;
78288;SDS011;67539;48.752;12.922;2023-06-22T11:26:44;7.47;;;6.67;;
78288;SDS011;67539;48.752;12.922;2023-06-22T11:29:12;7.27;;;6.27;;
78288;SDS011;67539;48.752;12.922;2023-06-22T11:31:58;7.57;;;6.17;;
78288;SDS011;67539;48.752;12.922;2023-06-22T11:34:26;7.70;;;5.80;;
78288;SDS011;67539;48.752;12.922;2023-06-22T11:36:55;7.80;;;6.30;;
78288;SDS011;67539;48.752;12.922;2023-06-22T11:39:23;10.93;;;6.27;;
78288;SDS011;67539;48.752;12.922;2023-06-22T11:42:06;8.10;;;6.20;;
78288;SDS011;67539;48.752;12.922;2023-06-22T11:44:35;6.80;;;6.20;;
78288;SDS011;67539;48.752;12.922;2023-06-22T11:47:04;7.37;;;6.70;;
78288;SDS011;67539;48.752;12.922;2023-06-22T11:49:32;6.70;;;5.77;;
78288;SDS011;67539;48.752;12.922;2023-06-22T11:52:02;6.43;;;5.80;;
78288;SDS011;67539;48.752;12.922;2023-06-22T11:54:31;11.73;;;6.97;;
78288;SDS011;67539;48.752;12.922;2023-06-22T11:57:00;7.67;;;6.20;;
78288;SDS011;67539;48.752;12.922;2023-06-22T11:59:28;6.87;;;6.17;;
78288;SDS011;67539;48.752;12.922;2023-06-22T12:01:56;7.40;;;6.13;;
78288;SDS011;67539;48.752;12.922;2023-06-22T12:04:25;8.30;;;6.30;;
78288;SDS011;67539;48.752;12.922;2023-06-22T12:06:53;7.07;;;6.37;;
78288;SDS011;67539;48.752;12.922;2023-06-22T12:09:23;14.03;;;7.07;;
78288;SDS011;67539;48.752;12.922;2023-06-22T12:11:51;7.50;;;6.40;;
78288;SDS011;67539;48.752;12.922;2023-06-22T12:14:19;9.13;;;6.23;;
78288;SDS011;67539;48.752;12.922;2023-06-22T12:16:47;7.73;;;6.20;;
78288;SDS011;67539;48.752;12.922;2023-06-22T12:19:15;7.67;;;6.77;;
78288;SDS011;67539;48.752;12.922;2023-06-22T12:21:43;6.20;;;5.60;;
78288;SDS011;67539;48.752;12.922;2023-06-22T12:24:12;7.57;;;6.47;;
78288;SDS011;67539;48.752;12.922;2023-06-22T12:26:42;10.30;;;5.80;;
78288;SDS011;67539;48.752;12.922;2023-06-22T12:29:10;5.93;;;5.40;;
78288;SDS011;67539;48.752;12.922;2023-06-22T12:31:38;7.90;;;6.10;;
78288;SDS011;67539;48.752;12.922;2023-06-22T12:34:06;6.70;;;6.10;;
78288;SDS011;67539;48.752;12.922;2023-06-22T12:36:34;8.17;;;6.70;;
78288;SDS011;67539;48.752;12.922;2023-06-22T12:39:02;8.60;;;5.60;;
78288;SDS011;67539;48.752;12.922;2023-06-22T12:41:30;11.67;;;6.87;;
78288;SDS011;67539;48.752;12.922;2023-06-22T12:44:00;10.57;;;6.20;;
78288;SDS011;67539;48.752;12.922;2023-06-22T12:46:28;6.37;;;5.87;;
78288;SDS011;67539;48.752;12.922;2023-06-22T12:48:57;10.53;;;5.80;;
78288;SDS011;67539;48.752;12.922;2023-06-22T12:51:27;6.37;;;5.73;;
78288;SDS011;67539;48.752;12.922;2023-06-22T12:53:55;7.17;;;6.53;;
78288;SDS011;67539;48.752;12.922;2023-06-22T12:56:23;6.63;;;5.57;;
78288;SDS011;67539;48.752;12.922;2023-06-22T12:58:52;8.07;;;6.07;;
78288;SDS011;67539;48.752;12.922;2023-06-22T13:01:21;6.43;;;5.90;;
78288;SDS011;67539;48.752;12.922;2023-06-22T13:03:50;7.53;;;6.83;;
78288;SDS011;67539;48.752;12.922;2023-06-22T13:06:18;10.77;;;6.63;;
78288;SDS011;67539;48.752;12.922;2023-06-22T13:08:46;7.37;;;6.07;;
78288;SDS011;67539;48.752;12.922;2023-06-22T13:11:17;7.77;;;6.30;;
78288;SDS011;67539;48.752;12.922;2023-06-22T13:13:45;12.50;;;6.27;;
78288;SDS011;67539;48.752;12.922;2023-06-22T13:16:14;10.87;;;6.70;;
78288;SDS011;67539;48.752;12.922;2023-06-22T13:18:43;7.10;;;6.20;;
78288;SDS011;67539;48.752;12.922;2023-06-22T13:21:11;11.03;;;6.37;;
78288;SDS011;67539;48.752;12.922;2023-06-22T13:23:40;7.80;;;6.37;;
78288;SDS011;67539;48.752;12.922;2023-06-22T13:26:08;7.13;;;6.20;;
78288;SDS011;67539;48.752;12.922;2023-06-22T13:28:36;6.73;;;6.10;;
78288;SDS011;67539;48.752;12.922;2023-06-22T13:31:04;6.50;;;5.87;;
78288;SDS011;67539;48.752;12.922;2023-06-22T13:33:33;7.70;;;6.90;;
78288;SDS011;67539;48.752;12.922;2023-06-22T13:36:03;10.03;;;7.07;;
78288;SDS011;67539;48.752;12.922;2023-06-22T13:38:32;10.43;;;7.17;;
78288;SDS011;67539;48.752;12.922;2023-06-22T13:41:04;9.37;;;7.10;;
78288;SDS011;67539;48.752;12.922;2023-06-22T13:43:33;7.63;;;6.83;;
78288;SDS011;67539;48.752;12.922;2023-06-22T13:46:01;10.77;;;6.40;;
78288;SDS011;67539;48.752;12.922;2023-06-22T13:48:29;8.53;;;6.67;;
78288;SDS011;67539;48.752;12.922;2023-06-22T13:50:57;8.00;;;6.13;;
78288;SDS011;67539;48.752;12.922;2023-06-22T13:53:26;6.43;;;5.80;;
78288;SDS011;67539;48.752;12.922;2023-06-22T13:55:55;10.63;;;6.60;;
78288;SDS011;67539;48.752;12.922;2023-06-22T13:58:23;9.00;;;6.40;;
78288;SDS011;67539;48.752;12.922;2023-06-22T14:00:51;8.87;;;6.33;;
78288;SDS011;67539;48.752;12.922;2023-06-22T14:03:22;7.73;;;5.80;;
78288;SDS011;67539;48.752;12.922;2023-06-22T14:05:50;8.00;;;6.37;;
78288;SDS011;67539;48.752;12.922;2023-06-22T14:08:20;9.40;;;6.00;;
78288;SDS011;67539;48.752;12.922;2023-06-22T14:10:54;10.77;;;6.07;;
78288;SDS011;67539;48.752;12.922;2023-06-22T14:13:22;8.33;;;6.37;;
78288;SDS011;67539;48.752;12.922;2023-06-22T14:15:50;11.47;;;5.90;;
78288;SDS011;67539;48.752;12.922;2023-06-22T14:18:18;8.07;;;5.80;;
78288;SDS011;67539;48.752;12.922;2023-06-22T14:20:48;7.47;;;6.30;;
78288;SDS011;67539;48.752;12.922;2023-06-22T14:23:16;8.07;;;6.57;;
78288;SDS011;67539;48.752;12.922;2023-06-22T14:25:44;8.67;;;6.00;;
78288;SDS011;67539;48.752;12.922;2023-06-22T14:28:14;7.20;;;5.20;;
78288;SDS011;67539;48.752;12.922;2023-06-22T14:30:43;7.53;;;6.03;;
78288;SDS011;67539;48.752;12.922;2023-06-22T14:33:11;7.33;;;5.77;;
78288;SDS011;67539;48.752;12.922;2023-06-22T14:35:39;8.70;;;6.27;;
78288;SDS011;67539;48.752;12.922;2023-06-22T14:38:07;8.30;;;6.13;;
78288;SDS011;67539;48.752;12.922;2023-06-22T14:40:35;6.27;;;5.63;;
78288;SDS011;67539;48.752;12.922;2023-06-22T14:43:25;8.83;;;6.23;;